Terminal Aerodrome Forecast
Issued by NWS

Home | Current Version | Previous Version | Graphics & Text | Print | Product List | Glossary On
Versions: 1 2 3 4 5 6 7 8 9 10 11 12 13 14 15 16 17 18 19 20
000
FTUS43 KGRB 080520
TAFAUW
TAF
KAUW 080520Z 0806/0906 25008G14KT P6SM BKN080
     FM080900 27009G14KT P6SM -SHSN OVC024
     FM081200 28008G14KT P6SM -SHSN BKN018
     FM081600 29009G15KT P6SM BKN023
     FM090000 26004KT 1 1/2SM -SN OVC016
     FM090400 29007KT 4SM -SN OVC018=

USA.gov is the U.S. government's official web portal to all federal, state and local government web resources and services.